»·PEaware :: N64TJ KLAX-KSAN

N64TJ :: KLAX-KSAN

FLIGHT INFORMATION

Flight Status: Arrived
Operator: Privately registered:
United States
More flights under this callsign
Pilot: Dalton B. (33280)
Aircraft: CESSNA 172 SKYHAWK
(C172)
More flights by this aircraft type
Origin: KLAX Los Angeles Intl
United States
Destination: KSAN San Diego Intl-Lindbergh
United States
More flights between these airports :: More routes between these airports
Route:
File this flight plan on PilotEdge
Remarks: CAT-11
Altitude:
(Current/Filed)
5,500ft
Speed:
(Current/Filed)
120kts
Departed: 22-Feb-21 11:42 AM
Arrived: 22-Feb-21 01:08 PM
Distance/Time
Traveled:
95nm/1:26
Distance/Time
To Go:
Arrived

Flight Plot

Page will automatically refresh every two minutes.


Map Options




Map Legend


Flown Route
Filed Route
Departure Airport
Arrival Airport
Navaid (VOR, NDB)
Fix

Horizontal Profiles

Position Reports

Time Latitude Longitude Heading Altitude Ground
Speed
22-Feb-21 11:29 33.934139 -118.394988 176 105ft 0kts
22-Feb-21 11:29 33.934139 -118.394988 176 105ft 0kts
22-Feb-21 11:31 33.934139 -118.394988 176 105ft 0kts
22-Feb-21 11:31 33.934139 -118.394988 176 105ft 0kts
22-Feb-21 11:32 33.934139 -118.394988 176 105ft 0kts
22-Feb-21 11:33 33.934139 -118.394988 176 105ft 0kts
22-Feb-21 11:35 33.934139 -118.394988 176 105ft 0kts
22-Feb-21 11:36 33.934139 -118.394988 176 105ft 0kts
22-Feb-21 11:36 33.934303 -118.394081 63 103ft 0kts
22-Feb-21 11:37 33.935180 -118.392042 87 102ft 16kts
22-Feb-21 11:38 33.935896 -118.385012 83 99ft 22kts
22-Feb-21 11:39 33.936379 -118.382841 13 96ft 0kts
22-Feb-21 11:40 33.937285 -118.383361 266 96ft 12kts
22-Feb-21 11:41 33.935612 -118.400368 263 239ft 88kts
22-Feb-21 11:42 33.927248 -118.429584 190 889ft 99kts
22-Feb-21 11:58 33.934139 -118.394988 176 105ft 0kts
22-Feb-21 11:59 33.934139 -118.394988 176 105ft 0kts
22-Feb-21 12:00 33.934139 -118.394988 176 105ft 0kts
22-Feb-21 12:01 33.934139 -118.394988 176 105ft 0kts
22-Feb-21 12:02 33.934139 -118.394988 176 105ft 0kts
22-Feb-21 12:03 33.934139 -118.394988 176 105ft 0kts
22-Feb-21 12:04 33.934139 -118.394988 176 105ft 0kts
22-Feb-21 12:05 33.934139 -118.394988 176 105ft 0kts
22-Feb-21 12:06 33.934139 -118.394988 176 105ft 0kts
22-Feb-21 12:07 33.934033 -118.394815 74 105ft 5kts
22-Feb-21 12:08 33.934571 -118.393995 2 103ft 18kts
22-Feb-21 12:09 33.935570 -118.388199 84 99ft 21kts
22-Feb-21 12:10 33.936402 -118.382838 17 96ft 0kts
22-Feb-21 12:11 33.937321 -118.383317 280 96ft 22kts
22-Feb-21 12:12 33.935226 -118.403461 262 363ft 84kts
22-Feb-21 12:13 33.931084 -118.429672 205 1113ft 77kts
22-Feb-21 12:14 33.909978 -118.425318 167 1763ft 79kts
22-Feb-21 12:15 33.889752 -118.419718 167 2409ft 75kts
22-Feb-21 12:16 33.866597 -118.413350 167 2837ft 97kts
22-Feb-21 12:17 33.839524 -118.405980 167 3343ft 101kts
22-Feb-21 12:18 33.812077 -118.398510 167 3844ft 101kts
22-Feb-21 12:19 33.786322 -118.387444 139 4343ft 99kts
22-Feb-21 12:20 33.764016 -118.363475 138 4547ft 116kts
22-Feb-21 12:21 33.747740 -118.330610 114 4845ft 113kts
22-Feb-21 12:22 33.736738 -118.298942 110 5412ft 95kts
22-Feb-21 12:23 33.726023 -118.265315 110 5513ft 119kts
22-Feb-21 12:24 33.713802 -118.227021 110 5518ft 125kts
22-Feb-21 12:25 33.700358 -118.187240 113 5522ft 130kts
22-Feb-21 12:26 33.682650 -118.149067 119 5522ft 131kts
22-Feb-21 12:27 33.662946 -118.111871 124 5521ft 132kts
22-Feb-21 12:28 33.642113 -118.076118 124 5521ft 132kts
22-Feb-21 12:29 33.621034 -118.039929 124 5521ft 132kts
22-Feb-21 12:30 33.599961 -118.003739 124 5521ft 132kts
22-Feb-21 12:31 33.580535 -117.966440 120 5521ft 132kts
22-Feb-21 12:32 33.561848 -117.928983 120 5521ft 132kts
22-Feb-21 12:33 33.543155 -117.891498 120 5521ft 132kts
22-Feb-21 12:34 33.524596 -117.854268 120 5521ft 132kts
22-Feb-21 12:35 33.505789 -117.816523 120 5521ft 132kts
22-Feb-21 12:36 33.486969 -117.778740 120 5521ft 132kts
22-Feb-21 12:37 33.468121 -117.740882 120 5521ft 132kts
22-Feb-21 12:38 33.445976 -117.706483 137 5518ft 132kts
22-Feb-21 12:39 33.418188 -117.678354 140 5518ft 132kts
22-Feb-21 12:40 33.389816 -117.650705 140 5518ft 132kts
22-Feb-21 12:41 33.361343 -117.622953 140 5518ft 132kts
22-Feb-21 12:42 33.334872 -117.592534 132 5518ft 132kts
22-Feb-21 12:43 33.309911 -117.560274 132 5518ft 132kts
22-Feb-21 12:44 33.285068 -117.528147 132 5518ft 132kts
22-Feb-21 12:45 33.260049 -117.495989 134 5518ft 132kts
22-Feb-21 12:46 33.234202 -117.464789 134 5517ft 132kts
22-Feb-21 12:47 33.207659 -117.434726 137 5475ft 129kts
22-Feb-21 12:48 33.182391 -117.407316 137 4842ft 124kts
22-Feb-21 12:49 33.156777 -117.379525 137 4113ft 125kts
22-Feb-21 12:50 33.130118 -117.356707 149 3567ft 106kts
22-Feb-21 12:51 33.105127 -117.340332 154 3523ft 97kts
22-Feb-21 12:52 33.080058 -117.327163 156 3530ft 105kts
22-Feb-21 12:53 33.051950 -117.314016 162 3534ft 108kts
22-Feb-21 12:54 33.023246 -117.303383 162 3533ft 107kts
22-Feb-21 12:55 32.994644 -117.292792 162 3533ft 107kts
22-Feb-21 12:56 32.966191 -117.282252 162 3533ft 107kts
22-Feb-21 12:57 32.937654 -117.271676 162 3533ft 107kts
22-Feb-21 12:58 32.909180 -117.261120 162 3532ft 106kts
22-Feb-21 12:59 32.881227 -117.250752 162 3529ft 104kts
22-Feb-21 13:00 32.854759 -117.240927 162 3517ft 92kts
22-Feb-21 13:01 32.829658 -117.232383 167 3289ft 109kts
22-Feb-21 13:02 32.798514 -117.221461 164 2502ft 111kts
22-Feb-21 13:03 32.770283 -117.211462 160 1870ft 105kts
22-Feb-21 13:04 32.743202 -117.195444 122 1001ft 106kts
22-Feb-21 13:05 32.735239 -117.166794 128 1006ft 79kts
22-Feb-21 13:06 32.732405 -117.184900 288 21ft 58kts
22-Feb-21 13:07 32.735127 -117.187810 21 21ft 29kts

Navigation Log

Ident Type
Flight plan parsing failed, navigation log unavailable